createdAt,value
2018-02-10T00:00:12.777Z,0
2018-02-10T00:01:14.382Z,0
2018-02-10T00:02:16.096Z,0
2018-02-10T00:03:17.793Z,0
2018-02-10T00:04:19.395Z,0
2018-02-10T00:05:21.001Z,0
2018-02-10T00:06:22.602Z,0
2018-02-10T00:07:24.456Z,0
2018-02-10T00:08:26.062Z,0
2018-02-10T00:09:27.795Z,0
2018-02-10T00:10:29.395Z,0
2018-02-10T00:11:31.030Z,0
2018-02-10T00:12:32.745Z,0
2018-02-10T00:13:34.551Z,0
2018-02-10T00:14:36.258Z,0
2018-02-10T00:15:37.870Z,0
2018-02-10T00:16:39.468Z,0
2018-02-10T00:17:41.074Z,0
2018-02-10T00:18:42.726Z,0
2018-02-10T00:19:44.345Z,0
2018-02-10T00:20:46.115Z,0
2018-02-10T00:21:47.872Z,0
2018-02-10T00:22:49.602Z,0
2018-02-10T00:23:51.417Z,0
2018-02-10T00:24:53.025Z,0
2018-02-10T00:25:54.657Z,0
2018-02-10T00:26:56.232Z,0
2018-02-10T00:27:58.061Z,0
2018-02-10T00:28:59.901Z,0
2018-02-10T00:30:01.681Z,0
2018-02-10T00:31:03.294Z,0
2018-02-10T00:32:05.073Z,0
2018-02-10T00:33:06.678Z,0
2018-02-10T00:34:08.279Z,0
2018-02-10T00:35:10.435Z,0
2018-02-10T00:36:12.157Z,0
2018-02-10T00:37:13.762Z,0
2018-02-10T00:38:15.365Z,0
2018-02-10T00:39:17.160Z,0
2018-02-10T00:40:18.798Z,0
2018-02-10T00:41:20.406Z,0
2018-02-10T00:42:22.050Z,0
2018-02-10T00:43:23.657Z,0
2018-02-10T00:44:25.395Z,0
2018-02-10T00:45:29.301Z,0
2018-02-10T00:46:30.903Z,0
2018-02-10T00:47:32.508Z,0
2018-02-10T00:48:34.109Z,0
2018-02-10T00:49:35.722Z,0
2018-02-10T00:50:37.318Z,0
2018-02-10T00:51:39.019Z,0
2018-02-10T00:52:40.589Z,0
2018-02-10T00:53:42.196Z,0
2018-02-10T00:54:43.797Z,0
2018-02-10T00:55:45.857Z,0
2018-02-10T00:56:47.462Z,0
2018-02-10T00:57:49.073Z,0
2018-02-10T00:58:50.677Z,0
2018-02-10T00:59:52.277Z,0
2018-02-10T01:00:53.879Z,0
2018-02-10T01:01:55.618Z,0
2018-02-10T01:02:57.227Z,0
2018-02-10T01:03:59.152Z,0
2018-02-10T01:05:00.768Z,0
2018-02-10T01:06:02.371Z,0
2018-02-10T01:07:03.983Z,0
2018-02-10T01:08:05.847Z,0
2018-02-10T01:09:07.612Z,0
2018-02-10T01:10:09.208Z,0
2018-02-10T01:11:10.813Z,0
2018-02-10T01:12:12.690Z,0
2018-02-10T01:13:14.432Z,0
2018-02-10T01:14:16.032Z,0
2018-02-10T01:15:17.814Z,0
2018-02-10T01:16:19.412Z,0
2018-02-10T01:17:21.072Z,0
2018-02-10T01:18:22.779Z,0
2018-02-10T01:19:24.393Z,0
2018-02-10T01:20:25.992Z,0
2018-02-10T01:21:27.598Z,0
2018-02-10T01:22:29.218Z,0
2018-02-10T01:23:30.798Z,0
2018-02-10T01:24:32.807Z,0
2018-02-10T01:25:34.817Z,0
2018-02-10T01:26:37.027Z,0
2018-02-10T01:27:38.624Z,0
2018-02-10T01:28:40.351Z,0
2018-02-10T01:29:42.078Z,0
2018-02-10T01:30:43.697Z,0
2018-02-10T01:31:45.525Z,0
2018-02-10T01:32:47.142Z,0
2018-02-10T01:33:48.759Z,0
2018-02-10T01:34:50.371Z,0
2018-02-10T01:35:52.071Z,0
2018-02-10T01:36:53.900Z,0
2018-02-10T01:37:55.508Z,0
2018-02-10T01:38:57.369Z,0
2018-02-10T01:39:59.239Z,0
2018-02-10T01:41:00.839Z,0
2018-02-10T01:42:02.446Z,0
2018-02-10T01:43:04.047Z,0
2018-02-10T01:44:05.658Z,0
2018-02-10T01:45:07.255Z,0
2018-02-10T01:46:08.856Z,0
2018-02-10T01:47:10.469Z,0
2018-02-10T01:48:12.076Z,0
2018-02-10T01:49:13.677Z,0
2018-02-10T01:50:15.277Z,0
2018-02-10T01:51:17.219Z,0
2018-02-10T01:52:18.970Z,0
2018-02-10T01:53:20.940Z,0
2018-02-10T01:54:22.540Z,0
2018-02-10T01:55:24.150Z,0
2018-02-10T01:56:26.192Z,0
2018-02-10T01:57:27.962Z,0
2018-02-10T01:58:29.563Z,0
2018-02-10T01:59:31.504Z,0
2018-02-10T02:00:33.116Z,0
2018-02-10T02:01:34.843Z,0
2018-02-10T02:02:36.450Z,0
2018-02-10T02:03:38.051Z,0
2018-02-10T02:04:39.658Z,0
2018-02-10T02:05:41.382Z,0
2018-02-10T02:06:43.145Z,0
2018-02-10T02:07:44.752Z,0
2018-02-10T02:08:46.499Z,0
2018-02-10T02:09:48.107Z,0
2018-02-10T02:10:49.718Z,0
2018-02-10T02:11:51.433Z,0
2018-02-10T02:12:53.049Z,0
2018-02-10T02:13:54.656Z,0
2018-02-10T02:14:56.659Z,0
2018-02-10T02:15:58.574Z,0
2018-02-10T02:17:00.360Z,0
2018-02-10T02:18:02.358Z,0
2018-02-10T02:19:04.280Z,0
2018-02-10T02:20:06.238Z,0
2018-02-10T02:21:08.045Z,0
2018-02-10T02:22:09.655Z,0
2018-02-10T02:23:11.275Z,0
2018-02-10T02:24:12.882Z,0
2018-02-10T02:25:14.487Z,0
2018-02-10T02:26:16.495Z,0
2018-02-10T02:27:18.853Z,0
2018-02-10T02:28:20.462Z,0
2018-02-10T02:29:22.960Z,0
2018-02-10T02:30:24.674Z,0
2018-02-10T02:31:26.360Z,0
2018-02-10T02:32:28.375Z,0
2018-02-10T02:33:29.972Z,0
2018-02-10T02:34:31.952Z,0
2018-02-10T02:35:33.548Z,0
2018-02-10T02:36:35.151Z,0
2018-02-10T02:37:36.813Z,0
2018-02-10T02:38:38.661Z,0
2018-02-10T02:39:40.277Z,0
2018-02-10T02:40:41.879Z,0
2018-02-10T02:41:43.485Z,0
2018-02-10T02:42:45.232Z,0
2018-02-10T02:43:47.065Z,0
2018-02-10T02:44:48.663Z,0
2018-02-10T02:45:50.271Z,0
2018-02-10T02:46:52.406Z,0
2018-02-10T02:47:54.146Z,0
2018-02-10T02:48:56.220Z,0
2018-02-10T02:49:57.913Z,0
2018-02-10T02:50:59.520Z,0
2018-02-10T02:52:01.133Z,0
2018-02-10T02:53:02.780Z,0
2018-02-10T02:54:05.028Z,0
2018-02-10T02:55:06.887Z,0
2018-02-10T02:56:08.486Z,0
2018-02-10T02:57:10.097Z,0
2018-02-10T02:58:12.047Z,0
2018-02-10T02:59:14.018Z,0
2018-02-10T03:00:15.625Z,0
2018-02-10T03:01:17.436Z,0
2018-02-10T03:02:19.035Z,0
2018-02-10T03:03:20.641Z,0
2018-02-10T03:04:22.242Z,0
2018-02-10T03:05:23.853Z,0
2018-02-10T03:06:25.452Z,0
2018-02-10T03:07:27.358Z,0
2018-02-10T03:08:28.964Z,0
2018-02-10T03:09:30.791Z,0
2018-02-10T03:10:32.395Z,0
2018-02-10T03:11:33.995Z,0
2018-02-10T03:12:35.744Z,0
2018-02-10T03:13:37.343Z,0
2018-02-10T03:14:38.956Z,0
2018-02-10T03:15:40.859Z,0
2018-02-10T03:16:42.475Z,0
2018-02-10T03:17:44.081Z,0
2018-02-10T03:18:45.682Z,0
2018-02-10T03:19:47.573Z,0
2018-02-10T03:20:49.181Z,0
2018-02-10T03:21:51.085Z,0
2018-02-10T03:22:52.687Z,0
2018-02-10T03:23:54.293Z,0
2018-02-10T03:24:55.892Z,0
2018-02-10T03:25:57.502Z,0
2018-02-10T03:26:59.101Z,0
2018-02-10T03:28:00.710Z,0
2018-02-10T03:29:02.310Z,0
2018-02-10T03:30:03.917Z,0
2018-02-10T03:31:05.522Z,0
2018-02-10T03:32:07.142Z,0
2018-02-10T03:33:08.745Z,0
2018-02-10T03:34:10.345Z,0
2018-02-10T03:35:11.947Z,0
2018-02-10T03:36:13.559Z,0
2018-02-10T03:37:15.163Z,0
2018-02-10T03:38:16.761Z,0
2018-02-10T03:39:18.362Z,0
2018-02-10T03:40:19.970Z,0
2018-02-10T03:41:21.577Z,0
2018-02-10T03:42:23.179Z,0
2018-02-10T03:43:24.785Z,0
2018-02-10T03:44:26.389Z,0
2018-02-10T03:45:27.995Z,0
2018-02-10T03:46:29.604Z,0
2018-02-10T03:47:31.200Z,0
2018-02-10T03:48:32.809Z,0
2018-02-10T03:49:34.415Z,0
2018-02-10T03:50:36.018Z,0
2018-02-10T03:51:37.628Z,0
2018-02-10T03:52:39.229Z,0
2018-02-10T03:53:40.837Z,0
2018-02-10T03:54:42.437Z,0
2018-02-10T03:55:44.044Z,0
2018-02-10T03:56:45.645Z,0
2018-02-10T03:57:47.247Z,0
2018-02-10T03:58:48.855Z,0
2018-02-10T03:59:50.461Z,0
2018-02-10T04:00:52.059Z,0
2018-02-10T04:01:53.661Z,0
2018-02-10T04:02:55.268Z,0
2018-02-10T04:03:56.898Z,0
2018-02-10T04:04:58.513Z,0
2018-02-10T04:06:00.108Z,0
2018-02-10T04:07:01.716Z,0
2018-02-10T04:08:03.315Z,0
2018-02-10T04:09:04.921Z,0
2018-02-10T04:10:06.521Z,0
2018-02-10T04:11:08.129Z,0
2018-02-10T04:12:09.731Z,0
2018-02-10T04:13:11.340Z,0
2018-02-10T04:14:12.939Z,0
2018-02-10T04:15:14.546Z,0
2018-02-10T04:16:16.146Z,0
2018-02-10T04:17:17.752Z,0
2018-02-10T04:18:19.351Z,0
2018-02-10T04:19:20.960Z,0
2018-02-10T04:20:22.567Z,0
2018-02-10T04:21:24.164Z,0
2018-02-10T04:22:25.770Z,0
2018-02-10T04:23:27.377Z,0
2018-02-10T04:24:28.983Z,0
2018-02-10T04:25:30.582Z,0
2018-02-10T04:26:32.189Z,0
2018-02-10T04:27:33.798Z,0
2018-02-10T04:28:35.403Z,0
2018-02-10T04:29:37.004Z,0
2018-02-10T04:30:38.604Z,0
2018-02-10T04:31:40.212Z,0
2018-02-10T04:32:41.818Z,0
2018-02-10T04:33:44.305Z,0
2018-02-10T04:34:45.907Z,0
2018-02-10T04:35:47.513Z,0
2018-02-10T04:36:49.118Z,0
2018-02-10T04:37:50.719Z,0
2018-02-10T04:38:52.325Z,0
2018-02-10T04:39:53.934Z,0
2018-02-10T04:40:55.541Z,0
2018-02-10T04:41:57.144Z,0
2018-02-10T04:42:58.744Z,0
2018-02-10T04:44:00.353Z,0
2018-02-10T04:45:01.960Z,0
2018-02-10T04:46:03.561Z,0
2018-02-10T04:47:05.171Z,0
2018-02-10T04:48:06.776Z,0
2018-02-10T04:49:08.388Z,0
2018-02-10T04:50:09.988Z,0
2018-02-10T04:51:11.595Z,0
2018-02-10T04:52:13.197Z,0
2018-02-10T04:53:14.804Z,0
2018-02-10T04:54:16.408Z,0
2018-02-10T04:55:18.018Z,0
2018-02-10T04:56:19.622Z,0
2018-02-10T04:57:21.271Z,0
2018-02-10T04:58:22.831Z,0
2018-02-10T04:59:24.436Z,0
2018-02-10T05:00:26.040Z,0
2018-02-10T05:01:27.650Z,0
2018-02-10T05:02:29.254Z,0
2018-02-10T05:03:30.865Z,0
2018-02-10T05:04:32.465Z,0
2018-02-10T05:05:34.074Z,0
2018-02-10T05:06:35.676Z,0
2018-02-10T05:07:37.286Z,0
2018-02-10T05:08:38.890Z,0
2018-02-10T05:09:40.498Z,0
2018-02-10T05:10:42.102Z,0
2018-02-10T05:11:43.705Z,0
2018-02-10T05:12:45.314Z,0
2018-02-10T05:13:46.915Z,0
2018-02-10T05:14:48.526Z,0
2018-02-10T05:15:50.128Z,0
2018-02-10T05:16:51.739Z,0
2018-02-10T05:17:53.341Z,0
2018-02-10T05:18:54.951Z,0
2018-02-10T05:19:56.550Z,0
2018-02-10T05:20:58.163Z,0
2018-02-10T05:21:59.761Z,0
2018-02-10T05:23:01.373Z,0
2018-02-10T05:24:02.977Z,0
2018-02-10T05:25:04.588Z,0
2018-02-10T05:26:06.187Z,0
2018-02-10T05:27:07.797Z,0
2018-02-10T05:28:09.398Z,0
2018-02-10T05:29:11.009Z,0
2018-02-10T05:30:13.431Z,0
2018-02-10T05:31:15.034Z,0
2018-02-10T05:32:16.638Z,0
2018-02-10T05:33:18.245Z,0
2018-02-10T05:34:19.850Z,0
2018-02-10T05:35:21.452Z,0
2018-02-10T05:36:23.062Z,0
2018-02-10T05:37:24.667Z,0
2018-02-10T05:38:26.268Z,0
2018-02-10T05:39:27.880Z,0
2018-02-10T05:40:29.484Z,0
2018-02-10T05:41:31.087Z,0
2018-02-10T05:42:32.697Z,0
2018-02-10T05:43:34.306Z,0
2018-02-10T05:44:35.907Z,0
2018-02-10T05:45:37.516Z,0
2018-02-10T05:46:39.122Z,0
2018-02-10T05:47:40.724Z,0
2018-02-10T05:48:42.327Z,0
2018-02-10T05:49:43.934Z,0
2018-02-10T05:50:45.541Z,0
2018-02-10T05:51:47.142Z,0
2018-02-10T05:52:48.746Z,0
2018-02-10T05:53:50.357Z,0
2018-02-10T05:54:51.963Z,0
2018-02-10T05:55:53.564Z,0
2018-02-10T05:56:55.165Z,0
2018-02-10T05:57:56.777Z,0
2018-02-10T05:58:58.382Z,0
2018-02-10T05:59:59.986Z,0
2018-02-10T06:01:02.275Z,0
2018-02-10T06:02:03.877Z,0
2018-02-10T06:03:05.489Z,0
2018-02-10T06:04:07.084Z,0
2018-02-10T06:05:08.693Z,0
2018-02-10T06:06:10.297Z,0
2018-02-10T06:07:11.905Z,0
2018-02-10T06:08:13.511Z,0
2018-02-10T06:09:15.116Z,0
2018-02-10T06:10:16.724Z,0
2018-02-10T06:11:18.324Z,0
2018-02-10T06:12:19.933Z,0
2018-02-10T06:13:21.536Z,0
2018-02-10T06:14:23.145Z,0
2018-02-10T06:15:24.748Z,0
2018-02-10T06:16:26.355Z,0
2018-02-10T06:17:27.961Z,0
2018-02-10T06:18:29.564Z,0
2018-02-10T06:19:31.787Z,0
2018-02-10T06:20:32.723Z,0
2018-02-10T06:21:34.332Z,0
2018-02-10T06:22:35.934Z,0
2018-02-10T06:23:37.541Z,0
2018-02-10T06:24:39.141Z,0
2018-02-10T06:25:40.749Z,0
2018-02-10T06:26:42.349Z,0
2018-02-10T06:27:43.957Z,0
2018-02-10T06:28:45.559Z,0
2018-02-10T06:29:47.167Z,0
2018-02-10T06:30:48.768Z,0
2018-02-10T06:31:50.376Z,0
2018-02-10T06:32:51.976Z,0
2018-02-10T06:33:53.584Z,0
2018-02-10T06:34:55.187Z,0
2018-02-10T06:35:56.791Z,0
2018-02-10T06:36:58.399Z,0
2018-02-10T06:38:00.008Z,0
2018-02-10T06:39:01.606Z,0
2018-02-10T06:40:03.211Z,0
2018-02-10T06:41:04.819Z,0
2018-02-10T06:42:06.424Z,0
2018-02-10T06:43:08.034Z,0
2018-02-10T06:44:09.642Z,0
2018-02-10T06:45:11.240Z,0
2018-02-10T06:46:12.842Z,0
2018-02-10T06:47:14.450Z,0
2018-02-10T06:48:16.059Z,0
2018-02-10T06:49:17.660Z,0
2018-02-10T06:50:19.271Z,0
2018-02-10T06:51:20.874Z,0
2018-02-10T06:52:22.480Z,0
2018-02-10T06:53:24.086Z,0
2018-02-10T06:54:25.691Z,5
2018-02-10T06:55:27.291Z,5
2018-02-10T06:56:28.897Z,5
2018-02-10T06:57:30.508Z,5
2018-02-10T06:58:32.118Z,5
2018-02-10T06:59:33.719Z,5
2018-02-10T07:00:35.326Z,5
2018-02-10T07:01:36.931Z,5
2018-02-10T07:02:38.539Z,5
2018-02-10T07:03:40.141Z,5
2018-02-10T07:04:41.748Z,5
2018-02-10T07:05:43.358Z,11
2018-02-10T07:06:45.012Z,11
2018-02-10T07:07:47.242Z,11
2018-02-10T07:08:48.845Z,11
2018-02-10T07:09:50.456Z,11
2018-02-10T07:10:52.061Z,11
2018-02-10T07:11:53.673Z,11
2018-02-10T07:12:55.276Z,16
2018-02-10T07:13:56.885Z,16
2018-02-10T07:14:58.487Z,16
2018-02-10T07:16:00.100Z,16
2018-02-10T07:17:01.700Z,16
2018-02-10T07:18:03.309Z,16
2018-02-10T07:19:04.919Z,22
2018-02-10T07:20:06.529Z,22
2018-02-10T07:21:08.132Z,22
2018-02-10T07:22:09.745Z,22
2018-02-10T07:23:11.346Z,22
2018-02-10T07:24:12.959Z,22
2018-02-10T07:25:14.562Z,22
2018-02-10T07:26:16.173Z,22
2018-02-10T07:27:17.776Z,22
2018-02-10T07:28:19.385Z,22
2018-02-10T07:29:20.987Z,22
2018-02-10T07:30:22.600Z,22
2018-02-10T07:31:24.205Z,22
2018-02-10T07:32:25.810Z,22
2018-02-10T07:33:27.423Z,28
2018-02-10T07:34:29.029Z,28
2018-02-10T07:35:30.639Z,33
2018-02-10T07:36:32.241Z,33
2018-02-10T07:37:33.850Z,33
2018-02-10T07:38:35.458Z,39
2018-02-10T07:39:37.067Z,33
2018-02-10T07:40:38.672Z,39
2018-02-10T07:41:40.283Z,39
2018-02-10T07:42:41.885Z,45
2018-02-10T07:43:43.494Z,45
2018-02-10T07:44:45.099Z,50
2018-02-10T07:45:46.711Z,50
2018-02-10T07:46:48.316Z,50
2018-02-10T07:47:49.923Z,50
2018-02-10T07:48:51.535Z,50
2018-02-10T07:49:53.138Z,50
2018-02-10T07:50:54.749Z,61
2018-02-10T07:51:56.352Z,56
2018-02-10T07:52:58.003Z,56
2018-02-10T07:53:59.570Z,56
2018-02-10T07:55:01.177Z,56
2018-02-10T07:56:02.788Z,61
2018-02-10T07:57:04.398Z,61
2018-02-10T07:58:06.010Z,56
2018-02-10T07:59:07.612Z,61
2018-02-10T08:00:09.220Z,73
2018-02-10T08:01:10.834Z,78
2018-02-10T08:02:12.442Z,78
2018-02-10T08:03:14.049Z,78
2018-02-10T08:04:15.659Z,90
2018-02-10T08:05:17.264Z,95
2018-02-10T08:06:18.876Z,95
2018-02-10T08:07:20.482Z,95
2018-02-10T08:08:22.095Z,90
2018-02-10T08:09:23.701Z,78
2018-02-10T08:10:25.312Z,67
2018-02-10T08:11:26.923Z,67
2018-02-10T08:12:28.534Z,67
2018-02-10T08:13:30.137Z,67
2018-02-10T08:14:31.746Z,67
2018-02-10T08:15:33.358Z,73
2018-02-10T08:16:34.969Z,78
2018-02-10T08:17:36.580Z,78
2018-02-10T08:18:38.185Z,67
2018-02-10T08:19:39.797Z,67
2018-02-10T08:20:41.431Z,67
2018-02-10T08:21:43.039Z,67
2018-02-10T08:22:44.652Z,67
2018-02-10T08:23:46.260Z,67
2018-02-10T08:24:47.872Z,67
2018-02-10T08:25:49.476Z,67
2018-02-10T08:26:51.087Z,73
2018-02-10T08:27:52.695Z,78
2018-02-10T08:28:54.299Z,84
2018-02-10T08:29:55.911Z,90
2018-02-10T08:30:57.524Z,84
2018-02-10T08:31:59.132Z,90
2018-02-10T08:33:00.737Z,95
2018-02-10T08:34:02.345Z,118
2018-02-10T08:35:03.956Z,135
2018-02-10T08:36:05.568Z,168
2018-02-10T08:37:07.206Z,163
2018-02-10T08:38:08.952Z,168
2018-02-10T08:39:10.561Z,157
2018-02-10T08:40:12.176Z,168
2018-02-10T08:41:13.780Z,180
2018-02-10T08:42:15.397Z,168
2018-02-10T08:43:17.001Z,185
2018-02-10T08:44:18.616Z,185
2018-02-10T08:45:20.232Z,168
2018-02-10T08:46:21.896Z,146
2018-02-10T08:47:23.450Z,140
2018-02-10T08:48:25.060Z,146
2018-02-10T08:49:26.673Z,146
2018-02-10T08:50:28.288Z,146
2018-02-10T08:51:29.897Z,146
2018-02-10T08:52:31.564Z,140
2018-02-10T08:53:33.172Z,112
2018-02-10T08:54:34.782Z,106
2018-02-10T08:55:36.393Z,112
2018-02-10T08:56:38.002Z,118
2018-02-10T08:57:39.611Z,123
2018-02-10T08:58:41.230Z,129
2018-02-10T08:59:42.844Z,135
2018-02-10T09:00:45.267Z,123
2018-02-10T09:01:46.896Z,112
2018-02-10T09:02:48.506Z,123
2018-02-10T09:03:50.112Z,135
2018-02-10T09:04:51.724Z,140
2018-02-10T09:05:53.337Z,151
2018-02-10T09:06:54.950Z,168
2018-02-10T09:07:56.562Z,174
2018-02-10T09:08:58.175Z,163
2018-02-10T09:09:59.811Z,157
2018-02-10T09:11:01.418Z,191
2018-02-10T09:12:08.484Z,196
2018-02-10T09:13:10.069Z,191
2018-02-10T09:14:11.679Z,180
2018-02-10T09:15:13.289Z,157
2018-02-10T09:16:14.894Z,135
2018-02-10T09:17:16.506Z,135
2018-02-10T09:18:18.119Z,123
2018-02-10T09:19:19.726Z,106
2018-02-10T09:20:21.350Z,112
2018-02-10T09:21:22.953Z,112
2018-02-10T09:22:24.566Z,101
2018-02-10T09:23:26.174Z,90
2018-02-10T09:24:27.784Z,95
2018-02-10T09:25:29.387Z,84
2018-02-10T09:26:31.003Z,84
2018-02-10T09:27:32.613Z,95
2018-02-10T09:28:34.229Z,106
2018-02-10T09:29:35.836Z,112
2018-02-10T09:30:37.463Z,112
2018-02-10T09:31:39.070Z,112
2018-02-10T09:32:40.683Z,118
2018-02-10T09:33:45.219Z,123
2018-02-10T09:34:47.172Z,129
2018-02-10T09:35:49.159Z,129
2018-02-10T09:36:51.023Z,135
2018-02-10T09:37:52.669Z,112
2018-02-10T09:38:54.279Z,112
2018-02-10T09:39:55.921Z,118
2018-02-10T09:40:57.499Z,129
2018-02-10T09:41:59.110Z,140
2018-02-10T09:43:00.720Z,140
2018-02-10T09:44:02.333Z,135
2018-02-10T09:45:03.937Z,135
2018-02-10T09:46:05.714Z,135
2018-02-10T09:47:07.319Z,123
2018-02-10T09:48:08.933Z,129
2018-02-10T09:49:10.540Z,140
2018-02-10T09:50:12.158Z,129
2018-02-10T09:51:13.766Z,129
2018-02-10T09:52:15.379Z,135
2018-02-10T09:53:16.988Z,135
2018-02-10T09:54:18.597Z,123
2018-02-10T09:55:20.204Z,135
2018-02-10T09:56:21.815Z,135
2018-02-10T09:57:23.423Z,140
2018-02-10T09:58:25.033Z,135
2018-02-10T09:59:26.639Z,123
2018-02-10T10:00:28.251Z,123
2018-02-10T10:01:29.856Z,123
2018-02-10T10:02:31.471Z,129
2018-02-10T10:03:33.077Z,123
2018-02-10T10:04:34.693Z,123
2018-02-10T10:05:36.304Z,123
2018-02-10T10:06:37.910Z,123
2018-02-10T10:07:39.519Z,118
2018-02-10T10:08:41.133Z,129
2018-02-10T10:09:42.745Z,118
2018-02-10T10:10:44.356Z,112
2018-02-10T10:11:45.963Z,112
2018-02-10T10:12:47.576Z,118
2018-02-10T10:13:49.184Z,106
2018-02-10T10:14:50.791Z,95
2018-02-10T10:15:52.403Z,101
2018-02-10T10:16:54.010Z,112
2018-02-10T10:17:55.624Z,106
2018-02-10T10:18:57.230Z,101
2018-02-10T10:19:58.846Z,101
2018-02-10T10:21:00.451Z,95
2018-02-10T10:22:02.061Z,101
2018-02-10T10:23:03.672Z,101
2018-02-10T10:24:05.281Z,106
2018-02-10T10:25:06.886Z,95
2018-02-10T10:26:08.497Z,95
2018-02-10T10:27:10.107Z,90
2018-02-10T10:28:11.716Z,90
2018-02-10T10:29:13.328Z,84
2018-02-10T10:30:14.933Z,78
2018-02-10T10:31:16.546Z,78
2018-02-10T10:32:18.150Z,78
2018-02-10T10:33:19.766Z,78
2018-02-10T10:34:21.373Z,90
2018-02-10T10:35:22.983Z,90
2018-02-10T10:36:24.588Z,90
2018-02-10T10:37:26.201Z,90
2018-02-10T10:38:27.810Z,95
2018-02-10T10:39:29.414Z,90
2018-02-10T10:40:31.076Z,84
2018-02-10T10:41:32.637Z,90
2018-02-10T10:42:34.250Z,101
2018-02-10T10:43:35.852Z,112
2018-02-10T10:44:37.461Z,118
2018-02-10T10:45:39.075Z,118
2018-02-10T10:46:40.718Z,118
2018-02-10T10:47:42.294Z,118
2018-02-10T10:48:43.910Z,123
2018-02-10T10:49:45.518Z,118
2018-02-10T10:50:47.128Z,112
2018-02-10T10:51:48.734Z,101
2018-02-10T10:52:50.347Z,95
2018-02-10T10:53:51.954Z,95
2018-02-10T10:54:53.562Z,95
2018-02-10T10:55:55.178Z,90
2018-02-10T10:56:56.785Z,90
2018-02-10T10:57:58.392Z,106
2018-02-10T10:59:00.006Z,106
2018-02-10T11:00:01.614Z,112
2018-02-10T11:01:03.228Z,106
2018-02-10T11:02:04.836Z,106
2018-02-10T11:03:06.445Z,112
2018-02-10T11:04:08.057Z,118
2018-02-10T11:05:09.663Z,123
2018-02-10T11:06:11.276Z,123
2018-02-10T11:07:12.882Z,118
2018-02-10T11:08:14.496Z,118
2018-02-10T11:09:16.104Z,135
2018-02-10T11:10:17.715Z,118
2018-02-10T11:11:19.322Z,118
2018-02-10T11:12:20.935Z,112
2018-02-10T11:13:22.542Z,123
2018-02-10T11:14:24.155Z,123
2018-02-10T11:15:25.760Z,129
2018-02-10T11:16:27.376Z,140
2018-02-10T11:17:28.983Z,129
2018-02-10T11:18:30.597Z,135
2018-02-10T11:19:32.204Z,140
2018-02-10T11:20:33.817Z,129
2018-02-10T11:21:35.430Z,135
2018-02-10T11:22:37.032Z,151
2018-02-10T11:23:38.649Z,146
2018-02-10T11:24:40.256Z,151
2018-02-10T11:25:41.868Z,140
2018-02-10T11:26:43.475Z,151
2018-02-10T11:27:45.087Z,163
2018-02-10T11:28:46.696Z,146
2018-02-10T11:29:48.307Z,140
2018-02-10T11:30:49.916Z,129
2018-02-10T11:31:51.533Z,129
2018-02-10T11:32:53.137Z,123
2018-02-10T11:33:54.749Z,129
2018-02-10T11:34:56.355Z,146
2018-02-10T11:35:57.971Z,140
2018-02-10T11:36:59.577Z,129
2018-02-10T11:38:01.187Z,140
2018-02-10T11:39:02.799Z,140
2018-02-10T11:40:04.416Z,135
2018-02-10T11:41:06.019Z,123
2018-02-10T11:42:07.627Z,123
2018-02-10T11:43:09.240Z,123
2018-02-10T11:44:10.853Z,123
2018-02-10T11:45:12.460Z,123
2018-02-10T11:46:14.077Z,129
2018-02-10T11:47:15.683Z,118
2018-02-10T11:48:17.295Z,123
2018-02-10T11:49:18.903Z,123
2018-02-10T11:50:20.520Z,123
2018-02-10T11:51:22.121Z,112
2018-02-10T11:52:23.735Z,101
2018-02-10T11:53:25.356Z,101
2018-02-10T11:54:26.959Z,106
2018-02-10T11:55:28.565Z,118
2018-02-10T11:56:30.171Z,118
2018-02-10T11:57:31.786Z,112
2018-02-10T11:58:33.400Z,118
2018-02-10T11:59:35.068Z,112
2018-02-10T12:00:36.618Z,112
2018-02-10T12:01:38.230Z,118
2018-02-10T12:02:39.864Z,112
2018-02-10T12:03:41.452Z,112
2018-02-10T12:04:43.059Z,118
2018-02-10T12:05:44.674Z,118
2018-02-10T12:06:46.280Z,118
2018-02-10T12:07:47.897Z,101
2018-02-10T12:08:49.504Z,118
2018-02-10T12:09:51.116Z,123
2018-02-10T12:10:52.724Z,118
2018-02-10T12:11:54.338Z,118
2018-02-10T12:12:55.947Z,118
2018-02-10T12:13:57.561Z,118
2018-02-10T12:14:59.169Z,118
2018-02-10T12:16:00.781Z,123
2018-02-10T12:17:02.389Z,129
2018-02-10T12:18:04.002Z,135
2018-02-10T12:19:05.612Z,151
2018-02-10T12:20:07.264Z,146
2018-02-10T12:21:08.835Z,151
2018-02-10T12:22:10.442Z,157
2018-02-10T12:23:12.067Z,168
2018-02-10T12:24:14.541Z,174
2018-02-10T12:25:16.206Z,174
2018-02-10T12:26:17.765Z,168
2018-02-10T12:27:19.378Z,185
2018-02-10T12:28:20.984Z,185
2018-02-10T12:29:22.599Z,180
2018-02-10T12:30:24.209Z,185
2018-02-10T12:31:25.819Z,213
2018-02-10T12:32:27.427Z,225
2018-02-10T12:33:29.040Z,230
2018-02-10T12:34:30.648Z,219
2018-02-10T12:35:32.265Z,236
2018-02-10T12:36:33.872Z,236
2018-02-10T12:37:35.480Z,270
2018-02-10T12:38:37.095Z,298
2018-02-10T12:39:38.703Z,298
2018-02-10T12:40:40.310Z,337
2018-02-10T12:41:41.921Z,489
2018-02-10T12:42:43.537Z,579
2018-02-10T12:43:45.147Z,691
2018-02-10T12:44:46.759Z,551
2018-02-10T12:45:48.367Z,601
2018-02-10T12:46:49.981Z,658
2018-02-10T12:47:51.592Z,579
2018-02-10T12:48:53.208Z,556
2018-02-10T12:49:54.822Z,444
2018-02-10T12:50:56.432Z,348
2018-02-10T12:51:58.039Z,315
2018-02-10T12:52:59.651Z,309
2018-02-10T12:54:01.258Z,365
2018-02-10T12:55:02.872Z,365
2018-02-10T12:56:04.483Z,326
2018-02-10T12:57:06.093Z,286
2018-02-10T12:58:07.712Z,236
2018-02-10T12:59:09.323Z,241
2018-02-10T13:00:10.932Z,241
2018-02-10T13:01:12.540Z,270
2018-02-10T13:02:14.157Z,219
2018-02-10T13:03:15.763Z,241
2018-02-10T13:04:17.378Z,219
2018-02-10T13:05:18.987Z,213
2018-02-10T13:06:20.596Z,225
2018-02-10T13:07:22.212Z,208
2018-02-10T13:08:24.783Z,196
2018-02-10T13:09:26.391Z,196
2018-02-10T13:10:28.020Z,180
2018-02-10T13:11:29.629Z,185
2018-02-10T13:12:31.291Z,174
2018-02-10T13:13:32.865Z,213
2018-02-10T13:14:34.469Z,202
2018-02-10T13:15:36.080Z,180
2018-02-10T13:16:37.750Z,185
2018-02-10T13:17:39.316Z,191
2018-02-10T13:18:40.929Z,180
2018-02-10T13:19:42.536Z,174
2018-02-10T13:20:44.150Z,191
2018-02-10T13:21:45.753Z,196
2018-02-10T13:22:47.368Z,191
2018-02-10T13:23:48.977Z,202
2018-02-10T13:24:50.593Z,208
2018-02-10T13:25:52.202Z,185
2018-02-10T13:26:53.818Z,180
2018-02-10T13:27:55.425Z,191
2018-02-10T13:28:57.036Z,219
2018-02-10T13:29:58.711Z,208
2018-02-10T13:31:00.388Z,202
2018-02-10T13:32:01.995Z,180
2018-02-10T13:33:03.607Z,157
2018-02-10T13:34:05.220Z,140
2018-02-10T13:35:06.824Z,129
2018-02-10T13:36:08.448Z,123
2018-02-10T13:37:10.055Z,129
2018-02-10T13:38:11.669Z,129
2018-02-10T13:39:13.276Z,135
2018-02-10T13:40:15.454Z,140
2018-02-10T13:41:17.064Z,146
2018-02-10T13:42:18.679Z,151
2018-02-10T13:43:20.282Z,157
2018-02-10T13:44:21.886Z,157
2018-02-10T13:45:23.494Z,146
2018-02-10T13:46:25.102Z,135
2018-02-10T13:47:26.712Z,140
2018-02-10T13:48:28.326Z,140
2018-02-10T13:49:29.936Z,157
2018-02-10T13:50:31.549Z,168
2018-02-10T13:51:33.164Z,157
2018-02-10T13:52:34.768Z,135
2018-02-10T13:53:36.376Z,118
2018-02-10T13:54:37.988Z,118
2018-02-10T13:55:39.602Z,123
2018-02-10T13:56:41.210Z,123
2018-02-10T13:57:42.824Z,118
2018-02-10T13:58:44.430Z,112
2018-02-10T13:59:46.043Z,112
2018-02-10T14:00:48.495Z,118
2018-02-10T14:01:50.110Z,112
2018-02-10T14:02:51.724Z,118
2018-02-10T14:03:53.330Z,118
2018-02-10T14:04:54.939Z,106
2018-02-10T14:05:56.552Z,101
2018-02-10T14:06:58.160Z,95
2018-02-10T14:07:59.768Z,90
2018-02-10T14:09:01.381Z,90
2018-02-10T14:10:03.028Z,95
2018-02-10T14:11:04.600Z,101
2018-02-10T14:12:06.214Z,101
2018-02-10T14:13:07.822Z,90
2018-02-10T14:14:09.433Z,78
2018-02-10T14:15:11.037Z,78
2018-02-10T14:16:12.661Z,78
2018-02-10T14:17:14.267Z,78
2018-02-10T14:18:15.876Z,78
2018-02-10T14:19:17.488Z,78
2018-02-10T14:20:19.098Z,73
2018-02-10T14:21:20.703Z,78
2018-02-10T14:22:22.316Z,78
2018-02-10T14:23:23.924Z,90
2018-02-10T14:24:25.540Z,95
2018-02-10T14:25:27.660Z,101
2018-02-10T14:26:29.273Z,101
2018-02-10T14:27:30.878Z,95
2018-02-10T14:28:33.359Z,101
2018-02-10T14:29:34.966Z,106
2018-02-10T14:30:36.577Z,101
2018-02-10T14:31:38.190Z,95
2018-02-10T14:32:39.796Z,95
2018-02-10T14:33:41.403Z,90
2018-02-10T14:34:43.014Z,106
2018-02-10T14:35:44.626Z,101
2018-02-10T14:36:46.235Z,95
2018-02-10T14:37:47.850Z,95
2018-02-10T14:38:49.458Z,90
2018-02-10T14:39:51.070Z,90
2018-02-10T14:40:52.676Z,90
2018-02-10T14:41:54.306Z,101
2018-02-10T14:42:55.916Z,106